Terminal Aerodrome Forecast
Issued by NWS

Home | Current Version | Previous Version | Text Only | Print | Product List | Glossary On
Versions: 1 2 3 4 5 6 7 8 9 10 11 12 13 14
815
FTUS44 KLIX 202344
TAFMCB
TAF
KMCB 202344Z 2100/2124 17011G20KT P6SM FEW040
     FM210200 16008KT P6SM BKN070
     FM210900 16008KT 4SM BR BKN008
     FM211500 16010KT P6SM OVC015 PROB30 2118/2120 4SM -TSRA
      OVC015CB
     FM212000 17011KT P6SM BKN035 PROB30 2120/2124 4SM -TSRA
      OVC025CB=

USA.gov is the U.S. government's official web portal to all federal, state and local government web resources and services.